Sv.knyaz Vladimir — UBKI2 — position and weather

sailwx.info

Track history (hours):
 
Tides and Currents Weather Stations Pressure Air Temp Water Temp Dewpoint Dewpoint Depression Visibility Wind Speed Wind Dir Waves Ship Positions

Sv.knyaz Vladimir

Last reported at 2016-Apr-29 21:33 UTC. Time now 2016-Apr-30 09:03 UTC.
Position N 47°05' E 039°10'.

Length 128 m; draft 3 m.

Type: Cargo ship. MMSI: 273350360.

Date/timePositionNaut miles runAvg speedWind from/ knotsBaromVisibWave heightAir tempDewpointWater temp
2016-Apr-29 21:33N 47°05' E 039°10'7 7.2
2016-Apr-29 20:33N 47°03' E 039°00'5 1.4
2016-Apr-29 17:24N 47°02' E 038°54'1 0.8
2016-Apr-29 16:33N 47°03' E 038°53'7 7.4
2016-Apr-29 15:33N 47°02' E 038°42'8 8.4
2016-Apr-29 14:33N 47°00' E 038°30'9 8.8
2016-Apr-29 13:33N 47°00' E 038°17'9 8.8
2016-Apr-29 12:33N 46°57' E 038°05'9 8.9
2016-Apr-29 11:33N 46°54' E 037°53'9 9.0
2016-Apr-29 10:33N 46°52' E 037°40'8 8.5
2016-Apr-29 09:33N 46°47' E 037°29'80 8.8
2016-Apr-29 00:32N 45°33' E 036°47'9 8.9
2016-Apr-28 23:33N 45°25' E 036°42'7 7.2
2016-Apr-28 22:33N 45°20' E 036°35'7 7.1
2016-Apr-28 21:33N 45°14' E 036°28'9 8.8
2016-Apr-28 20:33N 45°06' E 036°30'1 0.0
2016-Apr-28 03:33N 45°05' E 036°31'8 8.4
2016-Apr-28 02:33N 45°13' E 036°28'7 7.1
2016-Apr-28 01:33N 45°19' E 036°33'7 6.8
2016-Apr-28 00:34N 45°24' E 036°40'7 7.4
2016-Apr-27 23:34N 45°31' E 036°43'  
2016-Apr-20 18:13N 45°33' E 036°47'710.2
2016-Apr-20 17:34N 45°27' E 036°42'9 9.1
2016-Apr-20 16:33N 45°20' E 036°35'8 8.4
2016-Apr-20 15:34N 45°13' E 036°28'9 9.4
2016-Apr-20 14:33N 45°04' E 036°30'23 7.6
2016-Apr-20 11:33N 44°44' E 036°14'9 9.3
2016-Apr-20 10:33N 44°42' E 036°01'10 9.5
2016-Apr-20 09:29N 44°39' E 035°48'9 9.4
2016-Apr-20 08:34N 44°36' E 035°36'9 9.2
2016-Apr-20 07:33N 44°33' E 035°24'40 9.2
2016-Apr-20 03:13N 44°20' E 034°31'6 9.0
2016-Apr-20 02:33N 44°18' E 034°24'9 8.9
2016-Apr-20 01:33N 44°15' E 034°12'  
Track history (hours):
 
Tides and Currents Weather Stations Pressure Air Temp Water Temp Dewpoint Dewpoint Depression Visibility Wind Speed Wind Dir Waves Ship Positions

Sv.knyaz Vladimir

Last reported at 2016-Apr-29 21:33 UTC. Time now 2016-Apr-30 09:03 UTC.
Position N 47°05' E 039°10'.

Length 128 m; draft 3 m.

Type: Cargo ship. MMSI: 273350360.

Date/timePositionNaut miles runAvg speedWind from/ knotsBaromVisibWave heightAir tempDewpointWater temp
2016-Apr-29 21:33N 47°05' E 039°10'7 7.2
2016-Apr-29 20:33N 47°03' E 039°00'5 1.4
2016-Apr-29 17:24N 47°02' E 038°54'1 0.8
2016-Apr-29 16:33N 47°03' E 038°53'7 7.4
2016-Apr-29 15:33N 47°02' E 038°42'8 8.4
2016-Apr-29 14:33N 47°00' E 038°30'9 8.8
2016-Apr-29 13:33N 47°00' E 038°17'9 8.8
2016-Apr-29 12:33N 46°57' E 038°05'9 8.9
2016-Apr-29 11:33N 46°54' E 037°53'9 9.0
2016-Apr-29 10:33N 46°52' E 037°40'8 8.5
2016-Apr-29 09:33N 46°47' E 037°29'80 8.8
2016-Apr-29 00:32N 45°33' E 036°47'9 8.9
2016-Apr-28 23:33N 45°25' E 036°42'7 7.2
2016-Apr-28 22:33N 45°20' E 036°35'7 7.1
2016-Apr-28 21:33N 45°14' E 036°28'9 8.8
2016-Apr-28 20:33N 45°06' E 036°30'1 0.0
2016-Apr-28 03:33N 45°05' E 036°31'8 8.4
2016-Apr-28 02:33N 45°13' E 036°28'7 7.1
2016-Apr-28 01:33N 45°19' E 036°33'7 6.8
2016-Apr-28 00:34N 45°24' E 036°40'7 7.4
2016-Apr-27 23:34N 45°31' E 036°43'  
2016-Apr-20 18:13N 45°33' E 036°47'710.2
2016-Apr-20 17:34N 45°27' E 036°42'9 9.1
2016-Apr-20 16:33N 45°20' E 036°35'8 8.4
2016-Apr-20 15:34N 45°13' E 036°28'9 9.4
2016-Apr-20 14:33N 45°04' E 036°30'23 7.6
2016-Apr-20 11:33N 44°44' E 036°14'9 9.3
2016-Apr-20 10:33N 44°42' E 036°01'10 9.5
2016-Apr-20 09:29N 44°39' E 035°48'9 9.4
2016-Apr-20 08:34N 44°36' E 035°36'9 9.2
2016-Apr-20 07:33N 44°33' E 035°24'40 9.2
2016-Apr-20 03:13N 44°20' E 034°31'6 9.0
2016-Apr-20 02:33N 44°18' E 034°24'9 8.9
2016-Apr-20 01:33N 44°15' E 034°12'  

Dump ship's entire track history